createdAt,value
2018-03-30T07:38:39.728Z,17.25
2018-03-30T07:41:07.182Z,12.27
2018-03-30T07:43:34.621Z,11.23
2018-03-30T07:46:02.122Z,11.15
2018-03-30T07:48:29.555Z,12.20
2018-03-30T07:50:57.005Z,10.95
2018-03-30T07:53:24.511Z,11.55
2018-03-30T07:55:52.757Z,11.25
2018-03-30T07:58:20.202Z,10.45
2018-03-30T08:00:47.671Z,10.60
2018-03-30T08:03:33.693Z,11.40
2018-03-30T08:06:01.194Z,11.25
2018-03-30T08:08:28.638Z,11.77
2018-03-30T08:10:56.097Z,11.40
2018-03-30T08:13:23.549Z,10.82
2018-03-30T08:15:51.015Z,10.63
2018-03-30T08:18:18.456Z,12.05
2018-03-30T08:20:46.039Z,10.85
2018-03-30T08:23:13.477Z,9.50
2018-03-30T08:25:40.911Z,9.57
2018-03-30T08:28:08.378Z,10.05
2018-03-30T08:48:01.664Z,10.55
2018-03-30T08:50:29.077Z,7.78
2018-03-30T08:52:56.517Z,7.80
2018-03-30T08:55:24.080Z,7.68
2018-03-30T08:57:51.598Z,6.62
2018-03-30T09:00:19.038Z,6.18
2018-03-30T09:02:46.518Z,6.40
2018-03-30T09:05:14.034Z,7.95
2018-03-30T09:07:41.489Z,5.90
2018-03-30T09:10:08.944Z,6.20
2018-03-30T09:12:36.499Z,5.37
2018-03-30T09:15:03.960Z,5.05
2018-03-30T09:17:31.429Z,4.18
2018-03-30T09:19:58.882Z,6.15
2018-03-30T09:22:26.408Z,4.87
2018-03-30T09:24:53.860Z,4.80
2018-03-30T09:27:21.337Z,4.57
2018-03-30T09:29:53.700Z,5.47
2018-03-30T09:32:21.170Z,5.53
2018-03-30T09:34:48.615Z,5.05
2018-03-30T09:37:16.181Z,5.85
2018-03-30T09:39:44.104Z,5.00
2018-03-30T09:42:12.316Z,4.90
2018-03-30T09:44:39.755Z,4.95
2018-03-30T09:47:07.228Z,4.70
2018-03-30T09:49:34.688Z,5.75
2018-03-30T09:52:02.135Z,5.60
2018-03-30T09:54:29.766Z,6.80
2018-03-30T09:56:57.979Z,5.68
2018-03-30T09:59:25.420Z,5.90
2018-03-30T10:01:52.892Z,6.72
2018-03-30T10:04:23.150Z,6.30
2018-03-30T10:06:50.582Z,5.70
2018-03-30T10:09:18.148Z,6.05
2018-03-30T10:11:45.619Z,6.20
2018-03-30T10:14:13.065Z,6.18
2018-03-30T10:16:40.520Z,5.95
2018-03-30T10:19:07.988Z,6.32
2018-03-30T10:21:35.436Z,5.93
2018-03-30T10:24:03.217Z,5.60
2018-03-30T10:26:30.660Z,5.30
2018-03-30T10:28:58.122Z,4.85
2018-03-30T10:31:25.576Z,4.72
2018-03-30T10:33:53.013Z,4.40
2018-03-30T10:36:20.479Z,4.60
2018-03-30T10:38:48.201Z,3.80
2018-03-30T10:41:16.548Z,4.72
2018-03-30T10:43:43.997Z,3.87
2018-03-30T10:46:11.458Z,4.37
2018-03-30T10:48:38.897Z,3.90
2018-03-30T10:51:06.477Z,4.28
2018-03-30T10:53:33.925Z,4.37
2018-03-30T10:56:01.373Z,3.70
2018-03-30T10:58:28.921Z,3.45
2018-03-30T11:00:56.365Z,3.70
2018-03-30T11:03:23.836Z,3.05
2018-03-30T11:05:57.200Z,3.42
2018-03-30T11:08:24.636Z,3.03
2018-03-30T11:10:52.116Z,3.15
2018-03-30T11:13:20.333Z,2.62
2018-03-30T11:15:47.783Z,2.83
2018-03-30T11:18:15.320Z,2.60
2018-03-30T11:20:42.802Z,2.53
2018-03-30T11:23:10.247Z,2.70
2018-03-30T11:25:37.755Z,3.08
2018-03-30T11:28:05.198Z,3.00
2018-03-30T11:30:32.673Z,2.22
2018-03-30T11:33:00.121Z,2.83
2018-03-30T11:35:27.572Z,2.03
2018-03-30T11:37:55.072Z,2.28
2018-03-30T11:40:22.724Z,2.97
2018-03-30T12:02:45.717Z,2.35
2018-03-30T12:05:13.929Z,2.10
2018-03-30T12:07:41.397Z,2.05
2018-03-30T12:10:08.841Z,2.20
2018-03-30T12:12:36.504Z,2.37
2018-03-30T12:15:03.941Z,1.92
2018-03-30T12:17:31.384Z,2.58
2018-03-30T12:19:59.632Z,2.20
2018-03-30T12:22:27.100Z,2.50
2018-03-30T12:24:54.541Z,2.85
2018-03-30T12:27:22.248Z,2.75
2018-03-30T12:29:50.549Z,2.35
2018-03-30T12:32:18.829Z,2.30
2018-03-30T12:34:49.227Z,2.03
2018-03-30T12:37:17.426Z,3.35
2018-03-30T12:39:44.874Z,4.82
2018-03-30T12:42:22.426Z,2.78
2018-03-30T12:44:49.897Z,3.72
2018-03-30T12:47:17.489Z,3.50
2018-03-30T12:49:44.953Z,2.40
2018-03-30T12:52:12.397Z,2.33
2018-03-30T12:54:39.837Z,2.30
2018-03-30T12:57:07.308Z,1.98
2018-03-30T12:59:34.753Z,2.30
2018-03-30T13:02:02.201Z,1.90
2018-03-30T13:04:29.724Z,2.70
2018-03-30T13:06:57.185Z,2.10
2018-03-30T13:09:24.663Z,2.75
2018-03-30T13:11:52.112Z,4.80
2018-03-30T13:14:20.376Z,3.20
2018-03-30T13:16:47.903Z,2.67
2018-03-30T13:19:15.369Z,2.20
2018-03-30T13:21:42.816Z,2.35
2018-03-30T13:24:10.302Z,2.60
2018-03-30T13:26:37.801Z,3.03
2018-03-30T13:29:05.188Z,2.60
2018-03-30T13:31:32.729Z,3.10
2018-03-30T13:34:00.177Z,2.45
2018-03-30T13:36:27.640Z,3.30
2018-03-30T13:38:55.083Z,3.22
2018-03-30T13:41:22.558Z,5.03
2018-03-30T13:44:04.736Z,4.18
2018-03-30T13:46:32.268Z,4.20
2018-03-30T13:48:59.713Z,3.22
2018-03-30T13:51:37.848Z,3.10
2018-03-30T13:54:07.912Z,3.35
2018-03-30T13:56:49.007Z,4.20
2018-03-30T13:59:18.280Z,2.60
2018-03-30T14:02:02.339Z,6.10
2018-03-30T14:04:34.257Z,4.82
2018-03-30T14:10:18.576Z,3.47
2018-03-30T14:12:48.397Z,3.25
2018-03-30T14:15:18.497Z,3.05
2018-03-30T14:17:49.895Z,3.35
2018-03-30T14:28:53.325Z,3.90
2018-03-30T14:31:21.545Z,3.85
2018-03-30T14:33:51.540Z,3.60
2018-03-30T14:36:19.880Z,3.47
2018-03-30T14:38:53.599Z,3.58
2018-03-30T14:41:21.039Z,3.65
2018-03-30T14:43:52.361Z,4.32
2018-03-30T14:46:35.454Z,3.42
2018-03-30T14:49:17.137Z,4.20
2018-03-30T14:51:51.362Z,3.80
2018-03-30T14:54:19.920Z,3.20
2018-03-30T14:56:49.870Z,4.57
2018-03-30T14:59:18.078Z,5.03
2018-03-30T15:01:50.089Z,15.00
2018-03-30T15:04:33.200Z,8.45
2018-03-30T15:07:06.792Z,4.37
2018-03-30T15:09:42.997Z,8.05
2018-03-30T15:12:18.088Z,3.95
2018-03-30T15:14:47.496Z,3.15
2018-03-30T15:17:15.755Z,7.37
2018-03-30T15:19:44.801Z,5.87
2018-03-30T15:22:27.841Z,3.53
2018-03-30T15:25:06.577Z,3.45
2018-03-30T15:27:37.864Z,3.45
2018-03-30T15:30:13.021Z,4.90
2018-03-30T15:35:57.566Z,3.15
2018-03-30T15:38:25.017Z,3.03
2018-03-30T15:40:52.484Z,3.90
2018-03-30T15:43:20.837Z,4.12
2018-03-30T15:45:53.209Z,3.30
2018-03-30T15:54:05.806Z,3.83
2018-03-30T15:56:35.140Z,3.50
2018-03-30T15:59:03.348Z,3.95
2018-03-30T16:01:30.816Z,4.22
2018-03-30T16:03:58.260Z,4.07
2018-03-30T16:06:25.791Z,4.10
2018-03-30T16:08:54.002Z,6.07
2018-03-30T16:11:22.294Z,3.30
2018-03-30T16:13:49.736Z,3.80
2018-03-30T16:16:17.201Z,3.67
2018-03-30T16:18:56.347Z,4.00
2018-03-30T16:21:23.602Z,3.85
2018-03-30T16:23:50.550Z,3.97
2018-03-30T16:26:17.528Z,3.47
2018-03-30T16:28:45.246Z,3.65
2018-03-30T16:31:12.213Z,3.47
2018-03-30T16:33:39.172Z,3.87
2018-03-30T16:36:06.124Z,4.20
2018-03-30T16:38:33.933Z,3.58
2018-03-30T16:41:00.910Z,3.92
2018-03-30T16:43:27.873Z,2.55
2018-03-30T16:45:54.825Z,3.55
2018-03-30T16:48:21.796Z,2.80
2018-03-30T16:50:48.797Z,2.70
2018-03-30T16:53:15.773Z,3.60
2018-03-30T16:55:43.492Z,2.58
2018-03-30T16:58:10.533Z,3.83
2018-03-30T17:00:37.488Z,3.58
2018-03-30T17:03:04.493Z,2.85
2018-03-30T17:05:31.464Z,2.65
2018-03-30T17:07:58.428Z,3.78
2018-03-30T17:10:25.473Z,2.53
2018-03-30T17:12:52.458Z,3.62
2018-03-30T17:15:27.297Z,2.40
2018-03-30T17:17:55.033Z,2.30
2018-03-30T17:20:21.993Z,2.97
2018-03-30T17:22:48.940Z,2.72
2018-03-30T17:25:16.040Z,3.25
2018-03-30T17:27:42.997Z,4.57
2018-03-30T17:30:09.969Z,2.45
2018-03-30T17:32:36.924Z,3.15
2018-03-30T17:35:05.313Z,3.47
2018-03-30T17:37:33.028Z,2.67
2018-03-30T17:40:00.086Z,2.80
2018-03-30T17:42:27.036Z,4.53
2018-03-30T17:44:54.008Z,9.70
2018-03-30T17:47:20.964Z,3.83
2018-03-30T17:49:48.706Z,3.90
2018-03-30T17:52:15.650Z,3.30
2018-03-30T17:54:45.246Z,3.05
2018-03-30T17:57:12.203Z,4.07
2018-03-30T17:59:39.261Z,4.50
2018-03-30T18:02:06.216Z,4.30
2018-03-30T18:04:48.477Z,5.12
2018-03-30T18:07:15.435Z,3.80
2018-03-30T18:09:42.476Z,3.70
2018-03-30T18:12:09.440Z,3.42
2018-03-30T18:14:36.413Z,4.10
2018-03-30T18:17:04.133Z,4.65
2018-03-30T18:19:31.125Z,4.35
2018-03-30T18:21:58.849Z,5.00
2018-03-30T18:24:25.802Z,5.03
2018-03-30T18:26:53.021Z,6.53
2018-03-30T18:29:19.973Z,5.62
2018-03-30T18:31:46.950Z,6.87
2018-03-30T18:34:13.888Z,5.72
2018-03-30T18:36:40.866Z,5.90
2018-03-30T18:39:08.584Z,6.00
2018-03-30T18:41:35.628Z,6.65
2018-03-30T18:44:02.579Z,6.80
2018-03-30T18:46:29.541Z,6.18
2018-03-30T18:49:12.920Z,6.55
2018-03-30T18:51:39.909Z,6.28
2018-03-30T18:54:06.884Z,6.78
2018-03-30T18:56:33.885Z,6.00
2018-03-30T18:59:00.832Z,6.30
2018-03-30T19:01:27.898Z,5.57
2018-03-30T19:03:54.810Z,4.82
2018-03-30T19:06:21.795Z,5.32
2018-03-30T19:08:48.744Z,5.00
2018-03-30T19:11:15.749Z,5.10
2018-03-30T19:13:42.689Z,5.70
2018-03-30T19:16:09.667Z,5.12
2018-03-30T19:18:37.597Z,6.90
2018-03-30T19:21:04.591Z,6.90
2018-03-30T19:23:31.550Z,7.07
2018-03-30T19:25:58.500Z,5.70
2018-03-30T19:28:25.591Z,5.00
2018-03-30T19:31:05.941Z,5.80
2018-03-30T19:33:32.956Z,6.25
2018-03-30T19:35:59.909Z,5.35
2018-03-30T19:38:26.929Z,5.05
2018-03-30T19:40:53.876Z,5.15
2018-03-30T19:43:20.917Z,5.15
2018-03-30T19:45:47.864Z,5.00
2018-03-30T19:48:14.845Z,4.25
2018-03-30T19:50:41.786Z,4.40
2018-03-30T19:53:08.748Z,5.10
2018-03-30T19:55:36.504Z,4.15
2018-03-30T19:58:04.321Z,4.82
2018-03-30T20:00:31.273Z,5.32
2018-03-30T20:02:58.302Z,5.28
2018-03-30T20:05:25.257Z,5.90
2018-03-30T20:07:52.398Z,5.55
2018-03-30T20:10:19.776Z,5.37
2018-03-30T20:12:46.929Z,5.60
2018-03-30T20:15:13.885Z,4.82
2018-03-30T20:17:40.933Z,4.60
2018-03-30T20:20:07.959Z,8.50
2018-03-30T20:22:39.837Z,4.72
2018-03-30T20:25:06.784Z,5.45
2018-03-30T20:27:33.730Z,5.28
2018-03-30T20:30:05.716Z,5.32
2018-03-30T20:32:32.653Z,5.75
2018-03-30T20:34:59.626Z,5.07
2018-03-30T20:37:27.340Z,5.57
2018-03-30T20:39:55.531Z,5.95
2018-03-30T20:42:22.477Z,5.70
2018-03-30T20:44:49.426Z,5.10
2018-03-30T20:47:16.473Z,4.53
2018-03-30T20:49:43.441Z,5.70
2018-03-30T20:52:11.165Z,5.10
2018-03-30T20:54:38.132Z,5.10
2018-03-30T20:57:05.080Z,6.00
2018-03-30T20:59:32.118Z,5.05
2018-03-30T21:01:59.073Z,4.70
2018-03-30T21:04:27.406Z,4.75
2018-03-30T21:06:54.348Z,4.28
2018-03-30T21:09:21.305Z,4.03
2018-03-30T21:11:49.040Z,3.65
2018-03-30T21:14:16.181Z,4.00
2018-03-30T21:19:40.514Z,5.68
2018-03-30T21:22:07.463Z,5.00
2018-03-30T21:24:34.502Z,5.03
2018-03-30T21:27:02.217Z,5.35
2018-03-30T21:29:29.361Z,5.70
2018-03-30T21:31:56.316Z,5.60
2018-03-30T21:34:23.263Z,6.00
2018-03-30T21:36:51.283Z,5.00
2018-03-30T21:39:18.299Z,4.22
2018-03-30T21:41:45.237Z,4.30
2018-03-30T21:44:12.956Z,4.07
2018-03-30T21:46:40.089Z,4.45
2018-03-30T21:49:28.186Z,4.32
2018-03-30T21:51:55.153Z,4.35
2018-03-30T21:54:22.873Z,4.03
2018-03-30T21:56:49.885Z,4.40
2018-03-30T21:59:16.833Z,4.80
2018-03-30T22:01:43.788Z,4.97
2018-03-30T22:04:10.855Z,4.93
2018-03-30T22:06:37.808Z,4.62
2018-03-30T22:09:04.766Z,4.12
2018-03-30T22:11:32.213Z,4.37
2018-03-30T22:13:59.157Z,3.58
2018-03-30T22:16:26.145Z,4.30
2018-03-30T22:18:53.898Z,4.50
2018-03-30T22:21:21.616Z,4.80
2018-03-30T22:23:48.567Z,4.55
2018-03-30T22:26:15.625Z,4.60
2018-03-30T22:28:42.572Z,5.85
2018-03-30T22:31:09.522Z,4.62
2018-03-30T22:33:36.516Z,4.32
2018-03-30T22:36:09.719Z,4.75
2018-03-30T22:38:37.007Z,4.50
2018-03-30T22:41:03.954Z,4.68
2018-03-30T22:43:30.896Z,5.53
2018-03-30T22:45:57.944Z,5.07
2018-03-30T22:48:25.018Z,4.93
2018-03-30T22:50:51.964Z,4.65
2018-03-30T22:53:19.689Z,5.07
2018-03-30T22:55:46.648Z,5.53
2018-03-30T22:58:13.624Z,4.95
2018-03-30T23:00:41.345Z,5.90
2018-03-30T23:03:08.484Z,5.22
2018-03-30T23:05:35.438Z,7.03
2018-03-30T23:08:02.376Z,6.43
2018-03-30T23:10:33.022Z,6.75
2018-03-30T23:13:00.478Z,5.43
2018-03-30T23:15:36.685Z,5.82
2018-03-30T23:18:04.440Z,5.65
2018-03-30T23:20:31.392Z,5.68
2018-03-30T23:22:58.345Z,6.18
2018-03-30T23:25:26.088Z,5.40
2018-03-30T23:27:54.337Z,6.55
2018-03-30T23:30:21.289Z,5.62
2018-03-30T23:32:48.540Z,6.07
2018-03-30T23:35:15.503Z,6.07
2018-03-30T23:37:42.450Z,6.62
2018-03-30T23:40:09.884Z,6.55
2018-03-30T23:42:41.787Z,6.85
2018-03-30T23:45:09.504Z,6.85
2018-03-30T23:47:36.577Z,6.68
2018-03-30T23:50:03.557Z,6.90
2018-03-30T23:52:31.273Z,7.47
2018-03-30T23:54:58.248Z,7.43
2018-03-30T23:57:25.188Z,6.82
2018-03-30T23:59:52.164Z,7.40
